sensor_id;sensor_type;location;lat;lon;timestamp;P1;durP1;ratioP1;P2;durP2;ratioP2
47519;SDS011;33252;48.122;11.538;2023-01-25T00:01:47;25.35;;;11.98;;
47519;SDS011;33252;48.122;11.538;2023-01-25T00:04:12;28.48;;;14.32;;
47519;SDS011;33252;48.122;11.538;2023-01-25T00:06:38;27.38;;;12.65;;
47519;SDS011;33252;48.122;11.538;2023-01-25T00:09:04;26.77;;;12.18;;
47519;SDS011;33252;48.122;11.538;2023-01-25T00:11:29;20.58;;;10.90;;
47519;SDS011;33252;48.122;11.538;2023-01-25T00:13:55;28.55;;;13.60;;
47519;SDS011;33252;48.122;11.538;2023-01-25T00:16:22;24.85;;;11.52;;
47519;SDS011;33252;48.122;11.538;2023-01-25T00:18:48;23.08;;;12.55;;
47519;SDS011;33252;48.122;11.538;2023-01-25T00:21:15;26.75;;;13.27;;
47519;SDS011;33252;48.122;11.538;2023-01-25T00:23:46;25.80;;;11.65;;
47519;SDS011;33252;48.122;11.538;2023-01-25T00:26:12;20.77;;;11.25;;
47519;SDS011;33252;48.122;11.538;2023-01-25T00:28:38;26.75;;;13.27;;
47519;SDS011;33252;48.122;11.538;2023-01-25T00:31:05;24.63;;;12.23;;
47519;SDS011;33252;48.122;11.538;2023-01-25T00:36:27;22.05;;;11.48;;
47519;SDS011;33252;48.122;11.538;2023-01-25T00:38:58;23.70;;;12.07;;
47519;SDS011;33252;48.122;11.538;2023-01-25T00:41:24;23.88;;;12.93;;
47519;SDS011;33252;48.122;11.538;2023-01-25T00:43:49;29.27;;;15.23;;
47519;SDS011;33252;48.122;11.538;2023-01-25T00:46:16;25.10;;;12.85;;
47519;SDS011;33252;48.122;11.538;2023-01-25T00:48:42;22.73;;;11.95;;
47519;SDS011;33252;48.122;11.538;2023-01-25T00:51:08;25.45;;;12.15;;
47519;SDS011;33252;48.122;11.538;2023-01-25T00:53:34;24.58;;;12.52;;
47519;SDS011;33252;48.122;11.538;2023-01-25T00:56:00;27.67;;;14.02;;
47519;SDS011;33252;48.122;11.538;2023-01-25T00:58:25;23.50;;;12.15;;
47519;SDS011;33252;48.122;11.538;2023-01-25T01:00:52;26.27;;;13.10;;
47519;SDS011;33252;48.122;11.538;2023-01-25T01:03:18;25.77;;;11.82;;
47519;SDS011;33252;48.122;11.538;2023-01-25T01:05:44;25.50;;;11.32;;
47519;SDS011;33252;48.122;11.538;2023-01-25T01:08:10;21.65;;;12.02;;
47519;SDS011;33252;48.122;11.538;2023-01-25T01:10:37;24.85;;;12.55;;
47519;SDS011;33252;48.122;11.538;2023-01-25T01:13:03;25.52;;;13.65;;
47519;SDS011;33252;48.122;11.538;2023-01-25T01:15:28;23.05;;;11.93;;
47519;SDS011;33252;48.122;11.538;2023-01-25T01:17:54;20.48;;;11.07;;
47519;SDS011;33252;48.122;11.538;2023-01-25T01:20:20;26.73;;;12.27;;
47519;SDS011;33252;48.122;11.538;2023-01-25T01:22:45;24.63;;;11.85;;
47519;SDS011;33252;48.122;11.538;2023-01-25T01:25:11;29.65;;;13.63;;
47519;SDS011;33252;48.122;11.538;2023-01-25T01:27:37;28.85;;;12.80;;
47519;SDS011;33252;48.122;11.538;2023-01-25T01:30:04;24.17;;;12.77;;
47519;SDS011;33252;48.122;11.538;2023-01-25T01:32:30;23.80;;;12.07;;
47519;SDS011;33252;48.122;11.538;2023-01-25T01:34:56;29.00;;;13.38;;
47519;SDS011;33252;48.122;11.538;2023-01-25T01:37:21;28.75;;;13.30;;
47519;SDS011;33252;48.122;11.538;2023-01-25T01:39:47;25.52;;;13.32;;
47519;SDS011;33252;48.122;11.538;2023-01-25T01:42:13;25.50;;;12.38;;
47519;SDS011;33252;48.122;11.538;2023-01-25T01:44:46;27.73;;;13.90;;
47519;SDS011;33252;48.122;11.538;2023-01-25T01:47:24;23.75;;;13.73;;
47519;SDS011;33252;48.122;11.538;2023-01-25T01:50:09;26.58;;;13.57;;
47519;SDS011;33252;48.122;11.538;2023-01-25T01:52:45;25.60;;;11.82;;
47519;SDS011;33252;48.122;11.538;2023-01-25T01:55:20;27.02;;;14.05;;
47519;SDS011;33252;48.122;11.538;2023-01-25T01:57:49;29.90;;;12.85;;
47519;SDS011;33252;48.122;11.538;2023-01-25T02:00:21;25.50;;;13.85;;
47519;SDS011;33252;48.122;11.538;2023-01-25T02:02:49;23.30;;;11.57;;
47519;SDS011;33252;48.122;11.538;2023-01-25T02:08:08;27.08;;;12.20;;
47519;SDS011;33252;48.122;11.538;2023-01-25T02:10:37;30.40;;;13.23;;
47519;SDS011;33252;48.122;11.538;2023-01-25T02:13:04;26.60;;;12.07;;
47519;SDS011;33252;48.122;11.538;2023-01-25T02:15:32;26.73;;;12.38;;
47519;SDS011;33252;48.122;11.538;2023-01-25T02:18:06;27.63;;;11.32;;
47519;SDS011;33252;48.122;11.538;2023-01-25T02:25:37;21.55;;;11.77;;
47519;SDS011;33252;48.122;11.538;2023-01-25T02:28:10;25.48;;;11.90;;
47519;SDS011;33252;48.122;11.538;2023-01-25T02:30:50;23.80;;;12.82;;
47519;SDS011;33252;48.122;11.538;2023-01-25T02:33:16;23.95;;;12.40;;
47519;SDS011;33252;48.122;11.538;2023-01-25T02:35:49;30.88;;;13.07;;
47519;SDS011;33252;48.122;11.538;2023-01-25T02:38:22;25.80;;;11.82;;
47519;SDS011;33252;48.122;11.538;2023-01-25T02:40:51;25.27;;;11.88;;
47519;SDS011;33252;48.122;11.538;2023-01-25T02:43:21;22.70;;;11.60;;
47519;SDS011;33252;48.122;11.538;2023-01-25T02:45:49;24.88;;;12.00;;
47519;SDS011;33252;48.122;11.538;2023-01-25T02:48:20;24.23;;;11.40;;
47519;SDS011;33252;48.122;11.538;2023-01-25T02:50:46;25.48;;;12.10;;
47519;SDS011;33252;48.122;11.538;2023-01-25T02:53:11;24.65;;;12.15;;
47519;SDS011;33252;48.122;11.538;2023-01-25T02:55:37;28.88;;;13.57;;
47519;SDS011;33252;48.122;11.538;2023-01-25T02:58:03;23.73;;;11.75;;
47519;SDS011;33252;48.122;11.538;2023-01-25T03:00:28;28.50;;;12.48;;
47519;SDS011;33252;48.122;11.538;2023-01-25T03:02:54;22.55;;;11.98;;
47519;SDS011;33252;48.122;11.538;2023-01-25T03:05:20;23.40;;;12.13;;
47519;SDS011;33252;48.122;11.538;2023-01-25T03:07:45;24.25;;;12.73;;
47519;SDS011;33252;48.122;11.538;2023-01-25T03:10:11;23.15;;;12.52;;
47519;SDS011;33252;48.122;11.538;2023-01-25T03:12:37;23.88;;;12.32;;
47519;SDS011;33252;48.122;11.538;2023-01-25T03:15:02;26.20;;;12.57;;
47519;SDS011;33252;48.122;11.538;2023-01-25T03:17:28;24.85;;;11.73;;
47519;SDS011;33252;48.122;11.538;2023-01-25T03:19:55;28.13;;;12.95;;
47519;SDS011;33252;48.122;11.538;2023-01-25T03:22:20;23.30;;;11.55;;
47519;SDS011;33252;48.122;11.538;2023-01-25T03:24:46;27.63;;;13.80;;
47519;SDS011;33252;48.122;11.538;2023-01-25T03:27:12;28.70;;;12.80;;
47519;SDS011;33252;48.122;11.538;2023-01-25T03:29:44;26.15;;;13.07;;
47519;SDS011;33252;48.122;11.538;2023-01-25T03:32:10;25.05;;;12.52;;
47519;SDS011;33252;48.122;11.538;2023-01-25T03:34:36;26.25;;;12.48;;
47519;SDS011;33252;48.122;11.538;2023-01-25T03:37:02;22.55;;;11.85;;
47519;SDS011;33252;48.122;11.538;2023-01-25T03:39:28;20.92;;;11.05;;
47519;SDS011;33252;48.122;11.538;2023-01-25T03:41:53;26.00;;;12.48;;
47519;SDS011;33252;48.122;11.538;2023-01-25T03:44:19;28.10;;;12.93;;
47519;SDS011;33252;48.122;11.538;2023-01-25T03:46:45;20.65;;;10.00;;
47519;SDS011;33252;48.122;11.538;2023-01-25T03:49:10;26.75;;;11.65;;
47519;SDS011;33252;48.122;11.538;2023-01-25T03:51:36;21.13;;;12.02;;
47519;SDS011;33252;48.122;11.538;2023-01-25T03:54:02;24.40;;;11.00;;
47519;SDS011;33252;48.122;11.538;2023-01-25T03:56:28;18.90;;;9.98;;
47519;SDS011;33252;48.122;11.538;2023-01-25T03:58:55;21.48;;;11.43;;
47519;SDS011;33252;48.122;11.538;2023-01-25T04:01:21;20.52;;;9.98;;
47519;SDS011;33252;48.122;11.538;2023-01-25T04:03:46;21.05;;;10.88;;
47519;SDS011;33252;48.122;11.538;2023-01-25T04:06:12;23.17;;;11.43;;
47519;SDS011;33252;48.122;11.538;2023-01-25T04:08:37;25.25;;;10.52;;
47519;SDS011;33252;48.122;11.538;2023-01-25T04:11:04;23.35;;;9.95;;
47519;SDS011;33252;48.122;11.538;2023-01-25T04:13:32;20.85;;;10.57;;
47519;SDS011;33252;48.122;11.538;2023-01-25T04:16:04;20.30;;;9.63;;
47519;SDS011;33252;48.122;11.538;2023-01-25T04:18:31;22.52;;;11.57;;
47519;SDS011;33252;48.122;11.538;2023-01-25T04:20:57;21.73;;;10.38;;
47519;SDS011;33252;48.122;11.538;2023-01-25T04:23:23;22.00;;;11.32;;
47519;SDS011;33252;48.122;11.538;2023-01-25T04:25:58;25.02;;;10.73;;
47519;SDS011;33252;48.122;11.538;2023-01-25T04:28:30;24.73;;;10.30;;
47519;SDS011;33252;48.122;11.538;2023-01-25T04:30:56;27.65;;;10.43;;
47519;SDS011;33252;48.122;11.538;2023-01-25T04:33:23;23.83;;;11.43;;
47519;SDS011;33252;48.122;11.538;2023-01-25T04:35:49;22.80;;;10.30;;
47519;SDS011;33252;48.122;11.538;2023-01-25T04:38:15;19.83;;;10.20;;
47519;SDS011;33252;48.122;11.538;2023-01-25T04:40:41;19.50;;;10.60;;
47519;SDS011;33252;48.122;11.538;2023-01-25T04:43:07;25.83;;;10.50;;
47519;SDS011;33252;48.122;11.538;2023-01-25T04:45:35;18.98;;;9.00;;
47519;SDS011;33252;48.122;11.538;2023-01-25T04:48:01;19.17;;;9.88;;
47519;SDS011;33252;48.122;11.538;2023-01-25T04:50:29;25.30;;;11.23;;
47519;SDS011;33252;48.122;11.538;2023-01-25T04:52:56;23.08;;;9.98;;
47519;SDS011;33252;48.122;11.538;2023-01-25T04:55:22;21.08;;;10.85;;
47519;SDS011;33252;48.122;11.538;2023-01-25T04:57:48;23.98;;;9.93;;
47519;SDS011;33252;48.122;11.538;2023-01-25T05:00:17;18.98;;;9.82;;
47519;SDS011;33252;48.122;11.538;2023-01-25T05:02:44;27.27;;;10.10;;
47519;SDS011;33252;48.122;11.538;2023-01-25T05:05:10;17.75;;;9.30;;
47519;SDS011;33252;48.122;11.538;2023-01-25T05:07:35;20.17;;;10.63;;
47519;SDS011;33252;48.122;11.538;2023-01-25T05:10:01;20.50;;;9.40;;
47519;SDS011;33252;48.122;11.538;2023-01-25T05:12:27;22.15;;;10.10;;
47519;SDS011;33252;48.122;11.538;2023-01-25T05:14:53;23.30;;;10.48;;
47519;SDS011;33252;48.122;11.538;2023-01-25T05:17:18;20.75;;;9.65;;
47519;SDS011;33252;48.122;11.538;2023-01-25T05:19:44;21.45;;;10.38;;
47519;SDS011;33252;48.122;11.538;2023-01-25T05:22:11;25.20;;;10.30;;
47519;SDS011;33252;48.122;11.538;2023-01-25T05:24:38;24.52;;;10.52;;
47519;SDS011;33252;48.122;11.538;2023-01-25T05:27:05;22.48;;;9.75;;
47519;SDS011;33252;48.122;11.538;2023-01-25T05:29:33;20.83;;;9.65;;
47519;SDS011;33252;48.122;11.538;2023-01-25T05:34:37;21.73;;;9.75;;
47519;SDS011;33252;48.122;11.538;2023-01-25T05:37:03;21.88;;;10.02;;
47519;SDS011;33252;48.122;11.538;2023-01-25T05:39:31;18.55;;;9.20;;
47519;SDS011;33252;48.122;11.538;2023-01-25T05:41:56;18.50;;;9.48;;
47519;SDS011;33252;48.122;11.538;2023-01-25T05:44:22;19.75;;;9.27;;
47519;SDS011;33252;48.122;11.538;2023-01-25T05:46:48;22.13;;;9.60;;
47519;SDS011;33252;48.122;11.538;2023-01-25T05:49:14;20.63;;;10.25;;
47519;SDS011;33252;48.122;11.538;2023-01-25T05:51:40;21.58;;;9.98;;
47519;SDS011;33252;48.122;11.538;2023-01-25T05:54:06;15.88;;;8.68;;
47519;SDS011;33252;48.122;11.538;2023-01-25T05:56:35;17.50;;;8.10;;
47519;SDS011;33252;48.122;11.538;2023-01-25T05:59:01;23.15;;;9.13;;
47519;SDS011;33252;48.122;11.538;2023-01-25T06:01:27;16.70;;;9.38;;
47519;SDS011;33252;48.122;11.538;2023-01-25T06:03:53;17.70;;;8.55;;
47519;SDS011;33252;48.122;11.538;2023-01-25T06:06:19;19.13;;;9.70;;
47519;SDS011;33252;48.122;11.538;2023-01-25T06:08:45;16.80;;;9.00;;
47519;SDS011;33252;48.122;11.538;2023-01-25T06:11:12;18.30;;;9.20;;
47519;SDS011;33252;48.122;11.538;2023-01-25T06:13:40;17.27;;;8.75;;
47519;SDS011;33252;48.122;11.538;2023-01-25T06:16:06;19.52;;;9.43;;
47519;SDS011;33252;48.122;11.538;2023-01-25T06:18:33;17.10;;;8.27;;
47519;SDS011;33252;48.122;11.538;2023-01-25T06:21:00;16.42;;;8.15;;
47519;SDS011;33252;48.122;11.538;2023-01-25T06:23:26;15.85;;;8.00;;
47519;SDS011;33252;48.122;11.538;2023-01-25T06:25:56;17.08;;;8.98;;
47519;SDS011;33252;48.122;11.538;2023-01-25T06:28:22;20.30;;;9.32;;
47519;SDS011;33252;48.122;11.538;2023-01-25T06:30:48;17.02;;;9.00;;
47519;SDS011;33252;48.122;11.538;2023-01-25T06:33:14;19.38;;;9.02;;
47519;SDS011;33252;48.122;11.538;2023-01-25T06:35:39;20.83;;;9.95;;
47519;SDS011;33252;48.122;11.538;2023-01-25T06:38:06;17.65;;;8.38;;
47519;SDS011;33252;48.122;11.538;2023-01-25T06:40:32;18.10;;;8.63;;
47519;SDS011;33252;48.122;11.538;2023-01-25T06:43:07;17.98;;;8.63;;
47519;SDS011;33252;48.122;11.538;2023-01-25T06:45:34;19.48;;;8.20;;
47519;SDS011;33252;48.122;11.538;2023-01-25T06:47:59;18.45;;;8.52;;
47519;SDS011;33252;48.122;11.538;2023-01-25T06:50:25;15.35;;;8.50;;
47519;SDS011;33252;48.122;11.538;2023-01-25T06:52:54;14.63;;;7.50;;
47519;SDS011;33252;48.122;11.538;2023-01-25T06:55:20;17.05;;;8.48;;
47519;SDS011;33252;48.122;11.538;2023-01-25T06:57:46;14.63;;;8.88;;
47519;SDS011;33252;48.122;11.538;2023-01-25T07:00:12;16.25;;;9.07;;
47519;SDS011;33252;48.122;11.538;2023-01-25T07:02:39;13.13;;;7.53;;
47519;SDS011;33252;48.122;11.538;2023-01-25T07:05:05;13.88;;;7.78;;
47519;SDS011;33252;48.122;11.538;2023-01-25T07:07:31;12.23;;;7.25;;
47519;SDS011;33252;48.122;11.538;2023-01-25T07:09:56;16.55;;;7.57;;
47519;SDS011;33252;48.122;11.538;2023-01-25T07:12:24;16.88;;;8.13;;
47519;SDS011;33252;48.122;11.538;2023-01-25T07:14:50;13.60;;;7.47;;
47519;SDS011;33252;48.122;11.538;2023-01-25T07:17:16;14.13;;;7.10;;
47519;SDS011;33252;48.122;11.538;2023-01-25T07:19:41;14.10;;;7.32;;
47519;SDS011;33252;48.122;11.538;2023-01-25T07:22:07;14.73;;;8.23;;
47519;SDS011;33252;48.122;11.538;2023-01-25T07:24:33;13.60;;;7.38;;
47519;SDS011;33252;48.122;11.538;2023-01-25T07:26:58;14.88;;;7.55;;
47519;SDS011;33252;48.122;11.538;2023-01-25T07:29:24;14.40;;;7.93;;
47519;SDS011;33252;48.122;11.538;2023-01-25T07:31:49;13.10;;;6.97;;
47519;SDS011;33252;48.122;11.538;2023-01-25T07:34:15;13.68;;;7.60;;
47519;SDS011;33252;48.122;11.538;2023-01-25T07:36:41;13.77;;;6.72;;
47519;SDS011;33252;48.122;11.538;2023-01-25T07:39:11;15.68;;;7.60;;
47519;SDS011;33252;48.122;11.538;2023-01-25T07:41:37;15.38;;;9.18;;
47519;SDS011;33252;48.122;11.538;2023-01-25T07:44:04;18.48;;;9.15;;
47519;SDS011;33252;48.122;11.538;2023-01-25T07:46:29;14.02;;;8.60;;
47519;SDS011;33252;48.122;11.538;2023-01-25T07:48:55;12.57;;;7.60;;
47519;SDS011;33252;48.122;11.538;2023-01-25T07:51:22;13.10;;;7.93;;
47519;SDS011;33252;48.122;11.538;2023-01-25T07:53:54;13.13;;;7.50;;
47519;SDS011;33252;48.122;11.538;2023-01-25T07:56:30;14.10;;;7.57;;
47519;SDS011;33252;48.122;11.538;2023-01-25T07:59:01;13.60;;;7.10;;
47519;SDS011;33252;48.122;11.538;2023-01-25T08:01:28;14.60;;;7.32;;
47519;SDS011;33252;48.122;11.538;2023-01-25T08:03:56;15.43;;;8.80;;
47519;SDS011;33252;48.122;11.538;2023-01-25T08:06:23;14.25;;;7.85;;
47519;SDS011;33252;48.122;11.538;2023-01-25T08:08:51;14.32;;;7.43;;
47519;SDS011;33252;48.122;11.538;2023-01-25T08:11:19;12.25;;;7.10;;
47519;SDS011;33252;48.122;11.538;2023-01-25T08:13:49;13.45;;;7.10;;
47519;SDS011;33252;48.122;11.538;2023-01-25T08:16:16;15.77;;;8.10;;
47519;SDS011;33252;48.122;11.538;2023-01-25T08:18:49;19.00;;;9.57;;
47519;SDS011;33252;48.122;11.538;2023-01-25T08:21:17;14.55;;;7.38;;
47519;SDS011;33252;48.122;11.538;2023-01-25T08:23:43;13.48;;;7.05;;
47519;SDS011;33252;48.122;11.538;2023-01-25T08:26:11;13.60;;;6.80;;
47519;SDS011;33252;48.122;11.538;2023-01-25T08:28:38;15.45;;;7.32;;
47519;SDS011;33252;48.122;11.538;2023-01-25T08:31:14;12.35;;;7.22;;
47519;SDS011;33252;48.122;11.538;2023-01-25T08:33:42;14.27;;;7.00;;
47519;SDS011;33252;48.122;11.538;2023-01-25T08:36:10;16.15;;;7.45;;
47519;SDS011;33252;48.122;11.538;2023-01-25T08:38:36;14.63;;;7.53;;
47519;SDS011;33252;48.122;11.538;2023-01-25T08:41:06;13.32;;;7.47;;
47519;SDS011;33252;48.122;11.538;2023-01-25T08:43:44;15.23;;;7.97;;
47519;SDS011;33252;48.122;11.538;2023-01-25T08:46:11;11.82;;;6.88;;
47519;SDS011;33252;48.122;11.538;2023-01-25T08:48:39;12.90;;;6.43;;
47519;SDS011;33252;48.122;11.538;2023-01-25T08:51:08;12.18;;;6.57;;
47519;SDS011;33252;48.122;11.538;2023-01-25T08:53:36;11.02;;;5.72;;
47519;SDS011;33252;48.122;11.538;2023-01-25T08:56:05;11.25;;;5.68;;
47519;SDS011;33252;48.122;11.538;2023-01-25T08:58:32;13.73;;;6.85;;
47519;SDS011;33252;48.122;11.538;2023-01-25T09:01:02;12.45;;;7.45;;
47519;SDS011;33252;48.122;11.538;2023-01-25T09:03:29;13.30;;;7.07;;
47519;SDS011;33252;48.122;11.538;2023-01-25T09:05:56;12.80;;;7.10;;
47519;SDS011;33252;48.122;11.538;2023-01-25T09:08:21;13.63;;;7.55;;
47519;SDS011;33252;48.122;11.538;2023-01-25T09:10:47;18.20;;;8.00;;
47519;SDS011;33252;48.122;11.538;2023-01-25T09:13:13;15.15;;;8.13;;
47519;SDS011;33252;48.122;11.538;2023-01-25T09:15:39;14.07;;;7.72;;
47519;SDS011;33252;48.122;11.538;2023-01-25T09:18:04;14.82;;;8.07;;
47519;SDS011;33252;48.122;11.538;2023-01-25T09:20:30;19.55;;;9.40;;
47519;SDS011;33252;48.122;11.538;2023-01-25T09:22:59;15.45;;;8.27;;
47519;SDS011;33252;48.122;11.538;2023-01-25T09:25:24;15.27;;;7.72;;
47519;SDS011;33252;48.122;11.538;2023-01-25T09:27:50;18.38;;;8.65;;
47519;SDS011;33252;48.122;11.538;2023-01-25T09:30:16;18.58;;;8.68;;
47519;SDS011;33252;48.122;11.538;2023-01-25T09:32:42;20.15;;;8.85;;
47519;SDS011;33252;48.122;11.538;2023-01-25T09:35:08;16.02;;;8.88;;
47519;SDS011;33252;48.122;11.538;2023-01-25T09:37:34;14.35;;;7.85;;
47519;SDS011;33252;48.122;11.538;2023-01-25T09:39:59;16.92;;;8.50;;
47519;SDS011;33252;48.122;11.538;2023-01-25T09:47:55;17.58;;;8.23;;
47519;SDS011;33252;48.122;11.538;2023-01-25T09:53:29;13.88;;;7.60;;
47519;SDS011;33252;48.122;11.538;2023-01-25T09:56:21;15.90;;;8.10;;
47519;SDS011;33252;48.122;11.538;2023-01-25T09:58:50;17.50;;;7.63;;
47519;SDS011;33252;48.122;11.538;2023-01-25T10:01:21;16.58;;;8.15;;
47519;SDS011;33252;48.122;11.538;2023-01-25T10:04:14;17.10;;;9.35;;
47519;SDS011;33252;48.122;11.538;2023-01-25T10:06:42;18.63;;;9.45;;
47519;SDS011;33252;48.122;11.538;2023-01-25T10:12:05;20.17;;;9.30;;
47519;SDS011;33252;48.122;11.538;2023-01-25T10:14:48;15.90;;;8.23;;
47519;SDS011;33252;48.122;11.538;2023-01-25T10:17:17;14.77;;;7.35;;
47519;SDS011;33252;48.122;11.538;2023-01-25T10:23:06;15.82;;;8.60;;
47519;SDS011;33252;48.122;11.538;2023-01-25T10:25:43;17.15;;;8.82;;
47519;SDS011;33252;48.122;11.538;2023-01-25T10:28:23;17.55;;;8.13;;
47519;SDS011;33252;48.122;11.538;2023-01-25T10:31:05;17.13;;;8.32;;
47519;SDS011;33252;48.122;11.538;2023-01-25T10:33:39;16.15;;;8.57;;
47519;SDS011;33252;48.122;11.538;2023-01-25T10:36:09;16.02;;;8.45;;
47519;SDS011;33252;48.122;11.538;2023-01-25T10:38:39;14.88;;;8.35;;
47519;SDS011;33252;48.122;11.538;2023-01-25T10:43:38;16.45;;;7.93;;
47519;SDS011;33252;48.122;11.538;2023-01-25T10:46:05;13.63;;;7.10;;
47519;SDS011;33252;48.122;11.538;2023-01-25T10:48:49;15.30;;;8.73;;
47519;SDS011;33252;48.122;11.538;2023-01-25T10:51:28;17.25;;;9.13;;
47519;SDS011;33252;48.122;11.538;2023-01-25T10:54:02;23.23;;;9.20;;
47519;SDS011;33252;48.122;11.538;2023-01-25T10:56:29;19.00;;;9.23;;
47519;SDS011;33252;48.122;11.538;2023-01-25T10:59:12;18.67;;;9.18;;
47519;SDS011;33252;48.122;11.538;2023-01-25T11:01:41;17.70;;;8.95;;
47519;SDS011;33252;48.122;11.538;2023-01-25T11:04:41;18.30;;;9.20;;
47519;SDS011;33252;48.122;11.538;2023-01-25T11:07:01;16.63;;;9.07;;
47519;SDS011;33252;48.122;11.538;2023-01-25T11:09:31;19.58;;;9.45;;
47519;SDS011;33252;48.122;11.538;2023-01-25T11:12:03;19.47;;;9.07;;
47519;SDS011;33252;48.122;11.538;2023-01-25T11:14:41;19.30;;;8.90;;
47519;SDS011;33252;48.122;11.538;2023-01-25T11:17:09;14.82;;;8.95;;
47519;SDS011;33252;48.122;11.538;2023-01-25T11:20:03;14.15;;;6.82;;
47519;SDS011;33252;48.122;11.538;2023-01-25T11:22:54;15.05;;;7.80;;
47519;SDS011;33252;48.122;11.538;2023-01-25T11:27:58;15.57;;;7.90;;
47519;SDS011;33252;48.122;11.538;2023-01-25T11:30:44;15.07;;;8.13;;
47519;SDS011;33252;48.122;11.538;2023-01-25T11:33:11;16.33;;;8.75;;
47519;SDS011;33252;48.122;11.538;2023-01-25T11:35:50;17.17;;;8.77;;
47519;SDS011;33252;48.122;11.538;2023-01-25T11:38:17;13.13;;;7.38;;
47519;SDS011;33252;48.122;11.538;2023-01-25T11:40:55;13.23;;;8.30;;
47519;SDS011;33252;48.122;11.538;2023-01-25T11:43:41;12.88;;;7.15;;
47519;SDS011;33252;48.122;11.538;2023-01-25T12:02:18;20.83;;;9.48;;
47519;SDS011;33252;48.122;11.538;2023-01-25T12:10:15;21.65;;;9.20;;
47519;SDS011;33252;48.122;11.538;2023-01-25T12:13:02;16.35;;;8.65;;
47519;SDS011;33252;48.122;11.538;2023-01-25T12:21:18;18.48;;;8.10;;
47519;SDS011;33252;48.122;11.538;2023-01-25T12:23:55;14.27;;;8.07;;
47519;SDS011;33252;48.122;11.538;2023-01-25T12:34:28;20.65;;;9.27;;
47519;SDS011;33252;48.122;11.538;2023-01-25T12:37:06;17.77;;;9.15;;
47519;SDS011;33252;48.122;11.538;2023-01-25T12:39:39;21.33;;;9.55;;
47519;SDS011;33252;48.122;11.538;2023-01-25T12:42:17;21.02;;;9.65;;
47519;SDS011;33252;48.122;11.538;2023-01-25T12:44:48;19.13;;;9.68;;
47519;SDS011;33252;48.122;11.538;2023-01-25T12:47:28;19.17;;;9.40;;
47519;SDS011;33252;48.122;11.538;2023-01-25T12:52:43;19.42;;;8.55;;
47519;SDS011;33252;48.122;11.538;2023-01-25T12:55:21;16.35;;;9.13;;
47519;SDS011;33252;48.122;11.538;2023-01-25T13:00:36;22.52;;;8.90;;
47519;SDS011;33252;48.122;11.538;2023-01-25T13:08:43;21.25;;;9.57;;
47519;SDS011;33252;48.122;11.538;2023-01-25T13:16:40;21.33;;;9.70;;
47519;SDS011;33252;48.122;11.538;2023-01-25T13:21:53;26.98;;;12.48;;
47519;SDS011;33252;48.122;11.538;2023-01-25T13:31:55;19.05;;;10.02;;
47519;SDS011;33252;48.122;11.538;2023-01-25T13:37:15;24.02;;;10.55;;
47519;SDS011;33252;48.122;11.538;2023-01-25T13:45:42;23.60;;;11.70;;
47519;SDS011;33252;48.122;11.538;2023-01-25T13:48:12;27.58;;;12.63;;
47519;SDS011;33252;48.122;11.538;2023-01-25T13:50:52;21.35;;;11.32;;
47519;SDS011;33252;48.122;11.538;2023-01-25T13:53:25;30.83;;;12.48;;
47519;SDS011;33252;48.122;11.538;2023-01-25T13:55:57;28.77;;;12.27;;
47519;SDS011;33252;48.122;11.538;2023-01-25T13:58:24;23.50;;;11.27;;
47519;SDS011;33252;48.122;11.538;2023-01-25T14:00:58;26.80;;;12.50;;
47519;SDS011;33252;48.122;11.538;2023-01-25T14:03:32;25.58;;;11.98;;
47519;SDS011;33252;48.122;11.538;2023-01-25T14:06:17;22.10;;;11.73;;
47519;SDS011;33252;48.122;11.538;2023-01-25T14:09:10;26.65;;;11.63;;
47519;SDS011;33252;48.122;11.538;2023-01-25T14:11:47;25.80;;;12.77;;
47519;SDS011;33252;48.122;11.538;2023-01-25T14:19:48;26.85;;;12.20;;
47519;SDS011;33252;48.122;11.538;2023-01-25T14:27:34;28.17;;;12.27;;
47519;SDS011;33252;48.122;11.538;2023-01-25T14:30:05;30.55;;;13.05;;
47519;SDS011;33252;48.122;11.538;2023-01-25T14:32:38;29.65;;;13.93;;
47519;SDS011;33252;48.122;11.538;2023-01-25T14:35:51;29.73;;;12.48;;
47519;SDS011;33252;48.122;11.538;2023-01-25T14:37:58;26.98;;;13.07;;
47519;SDS011;33252;48.122;11.538;2023-01-25T14:40:27;31.23;;;13.23;;
47519;SDS011;33252;48.122;11.538;2023-01-25T14:42:54;31.40;;;12.60;;
47519;SDS011;33252;48.122;11.538;2023-01-25T14:45:21;27.35;;;13.07;;
47519;SDS011;33252;48.122;11.538;2023-01-25T14:47:51;29.30;;;13.93;;
47519;SDS011;33252;48.122;11.538;2023-01-25T14:50:31;33.53;;;14.18;;
47519;SDS011;33252;48.122;11.538;2023-01-25T14:55:42;34.25;;;14.95;;
47519;SDS011;33252;48.122;11.538;2023-01-25T14:58:10;34.20;;;12.70;;
47519;SDS011;33252;48.122;11.538;2023-01-25T15:00:41;29.48;;;12.35;;
47519;SDS011;33252;48.122;11.538;2023-01-25T15:03:25;27.83;;;10.90;;
47519;SDS011;33252;48.122;11.538;2023-01-25T15:05:53;31.65;;;14.40;;
47519;SDS011;33252;48.122;11.538;2023-01-25T15:08:28;30.55;;;12.57;;
47519;SDS011;33252;48.122;11.538;2023-01-25T15:10:59;29.25;;;13.88;;
47519;SDS011;33252;48.122;11.538;2023-01-25T15:13:45;27.08;;;13.70;;
47519;SDS011;33252;48.122;11.538;2023-01-25T15:16:11;26.17;;;12.18;;
47519;SDS011;33252;48.122;11.538;2023-01-25T15:18:53;28.90;;;12.77;;
47519;SDS011;33252;48.122;11.538;2023-01-25T15:21:29;29.35;;;14.23;;
47519;SDS011;33252;48.122;11.538;2023-01-25T15:23:57;28.17;;;13.38;;
47519;SDS011;33252;48.122;11.538;2023-01-25T15:26:29;25.83;;;13.13;;
47519;SDS011;33252;48.122;11.538;2023-01-25T15:28:57;27.38;;;13.20;;
47519;SDS011;33252;48.122;11.538;2023-01-25T15:31:32;31.85;;;12.27;;
47519;SDS011;33252;48.122;11.538;2023-01-25T15:34:00;29.00;;;12.40;;
47519;SDS011;33252;48.122;11.538;2023-01-25T15:36:26;31.35;;;13.05;;
47519;SDS011;33252;48.122;11.538;2023-01-25T15:38:52;24.80;;;11.43;;
47519;SDS011;33252;48.122;11.538;2023-01-25T15:41:18;27.65;;;12.48;;
47519;SDS011;33252;48.122;11.538;2023-01-25T15:43:44;27.23;;;13.18;;
47519;SDS011;33252;48.122;11.538;2023-01-25T15:46:15;28.15;;;14.00;;
47519;SDS011;33252;48.122;11.538;2023-01-25T15:48:47;31.70;;;13.30;;
47519;SDS011;33252;48.122;11.538;2023-01-25T15:51:13;30.00;;;13.55;;
47519;SDS011;33252;48.122;11.538;2023-01-25T15:53:39;29.00;;;12.88;;
47519;SDS011;33252;48.122;11.538;2023-01-25T15:56:21;28.83;;;12.00;;
47519;SDS011;33252;48.122;11.538;2023-01-25T15:58:53;24.95;;;11.80;;
47519;SDS011;33252;48.122;11.538;2023-01-25T16:01:21;25.30;;;12.90;;
47519;SDS011;33252;48.122;11.538;2023-01-25T16:03:48;23.25;;;10.98;;
47519;SDS011;33252;48.122;11.538;2023-01-25T16:09:00;27.92;;;12.57;;
47519;SDS011;33252;48.122;11.538;2023-01-25T16:11:36;25.58;;;12.15;;
47519;SDS011;33252;48.122;11.538;2023-01-25T16:14:02;28.17;;;14.00;;
47519;SDS011;33252;48.122;11.538;2023-01-25T16:16:28;31.70;;;13.77;;
47519;SDS011;33252;48.122;11.538;2023-01-25T16:18:54;29.30;;;13.85;;
47519;SDS011;33252;48.122;11.538;2023-01-25T16:21:19;24.55;;;11.95;;
47519;SDS011;33252;48.122;11.538;2023-01-25T16:23:45;26.13;;;13.07;;
47519;SDS011;33252;48.122;11.538;2023-01-25T16:26:15;27.80;;;12.57;;
47519;SDS011;33252;48.122;11.538;2023-01-25T16:28:43;25.05;;;12.10;;